createdAt,value
2022-09-03T00:00:09.826Z,4.70
2022-09-03T00:00:35.128Z,1.00
2022-09-03T00:00:59.298Z,1.00
2022-09-03T00:01:24.092Z,1.00
2022-09-03T00:01:50.977Z,1.00
2022-09-03T00:02:16.469Z,1.00
2022-09-03T00:02:41.352Z,1.00
2022-09-03T00:03:06.810Z,1.00
2022-09-03T00:03:32.235Z,1.00
2022-09-03T00:03:57.489Z,1.00
2022-09-03T00:04:25.926Z,1.00
2022-09-03T00:04:53.664Z,1.00
2022-09-03T00:05:21.970Z,1.00
2022-09-03T00:05:48.720Z,1.00
2022-09-03T00:06:13.604Z,1.00
2022-09-03T00:06:38.776Z,1.00
2022-09-03T00:07:03.919Z,9.90
2022-09-03T00:07:32.219Z,13.20
2022-09-03T00:07:58.674Z,36.50
2022-09-03T00:08:25.990Z,30.50
2022-09-03T00:08:53.346Z,46.80
2022-09-03T00:09:18.142Z,1.00
2022-09-03T00:09:43.673Z,1.00
2022-09-03T00:10:10.507Z,1.00
2022-09-03T00:10:37.973Z,3.90
2022-09-03T00:11:06.507Z,4.70
2022-09-03T00:11:33.011Z,8.70
2022-09-03T00:12:02.126Z,1.00
2022-09-03T00:12:26.963Z,1.00
2022-09-03T00:12:49.797Z,1.00
2022-09-03T00:13:15.042Z,1.00
2022-09-03T00:13:39.293Z,1.00
2022-09-03T00:14:04.685Z,1.00
2022-09-03T00:14:28.921Z,1.00
2022-09-03T00:14:53.756Z,1.00
2022-09-03T00:15:18.151Z,1.00
2022-09-03T00:15:41.078Z,1.00
2022-09-03T00:16:11.259Z,1.00
2022-09-03T00:16:41.168Z,1.00
2022-09-03T00:17:06.136Z,1.00
2022-09-03T00:17:31.276Z,1.00
2022-09-03T00:17:55.957Z,1.00
2022-09-03T00:18:21.815Z,1.00
2022-09-03T00:18:46.821Z,1.00
2022-09-03T00:19:09.754Z,1.00
2022-09-03T00:19:35.577Z,1.00
2022-09-03T00:19:59.585Z,1.00
2022-09-03T00:20:25.016Z,1.00
2022-09-03T00:20:51.096Z,1.00
2022-09-03T00:21:15.917Z,1.00
2022-09-03T00:21:40.536Z,5.50
2022-09-03T00:22:07.566Z,2.60
2022-09-03T00:22:32.366Z,12.40
2022-09-03T00:22:55.881Z,24.40
2022-09-03T00:23:21.818Z,21.20
2022-09-03T00:23:45.266Z,19.70
2022-09-03T00:24:14.403Z,24.90
2022-09-03T00:24:39.537Z,23.40
2022-09-03T00:25:04.205Z,12.10
2022-09-03T00:25:29.018Z,14.30
2022-09-03T00:25:54.616Z,14.50
2022-09-03T00:26:23.101Z,17.40
2022-09-03T00:26:47.445Z,14.40
2022-09-03T00:27:13.686Z,13.10
2022-09-03T00:27:38.322Z,6.40
2022-09-03T00:28:01.997Z,9.20
2022-09-03T00:28:27.456Z,17.90
2022-09-03T00:28:52.082Z,17.10
2022-09-03T00:29:17.346Z,17.30
2022-09-03T00:29:44.399Z,26.80
2022-09-03T00:30:10.349Z,17.00
2022-09-03T00:30:37.410Z,7.90
2022-09-03T00:31:07.435Z,13.50
2022-09-03T00:31:33.090Z,3.90
2022-09-03T00:31:58.174Z,1.00
2022-09-03T00:32:23.344Z,1.00
2022-09-03T00:32:47.894Z,1.00
2022-09-03T00:33:13.485Z,5.10
2022-09-03T00:33:36.460Z,4.80
2022-09-03T00:34:01.345Z,4.10
2022-09-03T00:34:27.419Z,5.00
2022-09-03T00:34:52.229Z,1.50
2022-09-03T00:35:18.574Z,18.40
2022-09-03T00:35:45.034Z,16.90
2022-09-03T00:36:13.835Z,16.90
2022-09-03T00:36:44.027Z,13.60
2022-09-03T00:37:07.596Z,23.60
2022-09-03T00:37:38.256Z,22.40
2022-09-03T00:38:01.497Z,32.80
2022-09-03T00:38:24.345Z,37.60
2022-09-03T00:38:48.926Z,29.30
2022-09-03T00:39:14.625Z,17.80
2022-09-03T00:39:38.491Z,9.90
2022-09-03T00:40:03.498Z,1.00
2022-09-03T00:41:02.139Z,6.30
2022-09-03T00:41:30.491Z,1.00
2022-09-03T00:42:01.244Z,14.40
2022-09-03T00:42:33.985Z,13.60
2022-09-03T00:42:59.084Z,9.00
2022-09-03T00:43:28.829Z,19.50
2022-09-03T00:44:05.509Z,17.00
2022-09-03T00:44:45.649Z,16.70
2022-09-03T00:45:15.935Z,1.00
2022-09-03T00:45:41.315Z,1.00
2022-09-03T00:46:07.520Z,1.00
2022-09-03T00:46:34.799Z,1.00
2022-09-03T00:47:00.341Z,1.00
2022-09-03T00:47:28.207Z,1.00
2022-09-03T00:47:59.174Z,5.40
2022-09-03T00:48:27.906Z,21.40
2022-09-03T00:49:15.587Z,5.40
2022-09-03T00:49:45.667Z,9.80
2022-09-03T00:50:10.497Z,1.00
2022-09-03T00:50:40.232Z,1.00
2022-09-03T00:51:09.891Z,1.00
2022-09-03T00:51:34.789Z,1.00
2022-09-03T00:52:01.924Z,1.00
2022-09-03T00:52:33.617Z,1.00
2022-09-03T00:53:03.328Z,8.20
2022-09-03T00:53:28.954Z,1.90
2022-09-03T00:53:55.099Z,1.00
2022-09-03T00:54:20.806Z,1.00
2022-09-03T00:54:49.814Z,1.00
2022-09-03T00:55:18.510Z,1.00
2022-09-03T00:55:47.429Z,1.00
2022-09-03T00:56:14.314Z,1.00
2022-09-03T00:56:41.209Z,1.00
2022-09-03T00:57:11.924Z,1.00
2022-09-03T00:57:47.650Z,1.00
2022-09-03T00:58:26.326Z,1.00
2022-09-03T00:59:02.165Z,6.90
2022-09-03T00:59:30.614Z,28.60
2022-09-03T00:59:58.610Z,35.20
2022-09-03T01:00:21.648Z,26.30
2022-09-03T01:00:45.329Z,27.20
2022-09-03T01:01:10.827Z,27.80
2022-09-03T01:01:37.113Z,9.40
2022-09-03T01:02:06.375Z,6.70
2022-09-03T01:02:35.500Z,1.00
2022-09-03T01:03:07.036Z,4.00
2022-09-03T01:03:34.802Z,6.90
2022-09-03T01:04:04.296Z,1.00
2022-09-03T01:04:34.323Z,9.50
2022-09-03T01:05:01.524Z,10.50
2022-09-03T01:05:34.639Z,12.10
2022-09-03T01:06:05.576Z,7.70
2022-09-03T01:06:31.121Z,14.30
2022-09-03T01:06:59.125Z,11.30
2022-09-03T01:07:32.701Z,13.00
2022-09-03T01:07:59.410Z,2.70
2022-09-03T01:08:32.367Z,1.00
2022-09-03T01:09:17.947Z,1.00
2022-09-03T01:09:50.476Z,14.50
2022-09-03T01:10:21.114Z,21.60
2022-09-03T01:10:50.134Z,23.70
2022-09-03T01:11:20.182Z,27.10
2022-09-03T01:11:49.338Z,26.70
2022-09-03T01:12:15.914Z,6.30
2022-09-03T01:12:43.975Z,8.40
2022-09-03T01:13:11.234Z,9.50
2022-09-03T01:13:36.401Z,16.50
2022-09-03T01:14:06.610Z,13.80
2022-09-03T01:14:37.540Z,41.40
2022-09-03T01:15:05.020Z,37.50
2022-09-03T01:15:31.481Z,19.90
2022-09-03T01:16:00.100Z,1.90
2022-09-03T01:16:26.966Z,10.10
2022-09-03T01:16:52.055Z,15.10
2022-09-03T01:17:20.701Z,1.00
2022-09-03T01:17:54.769Z,3.70
2022-09-03T01:18:22.312Z,6.90
2022-09-03T01:18:48.895Z,7.70
2022-09-03T01:19:24.074Z,6.30
2022-09-03T01:20:14.150Z,15.20
2022-09-03T01:20:43.919Z,21.80
2022-09-03T01:21:22.057Z,19.10
2022-09-03T01:21:58.950Z,20.90
2022-09-03T01:22:45.189Z,20.70
2022-09-03T01:23:40.429Z,30.70
2022-09-03T01:24:30.032Z,31.90
2022-09-03T01:25:06.170Z,30.90
2022-09-03T01:25:38.792Z,29.00
2022-09-03T01:26:07.599Z,28.50
2022-09-03T01:26:36.232Z,33.30
2022-09-03T01:27:11.249Z,26.10
2022-09-03T01:27:44.964Z,35.90
2022-09-03T01:28:24.014Z,23.20
2022-09-03T01:28:55.588Z,33.50
2022-09-03T01:29:22.146Z,33.40
2022-09-03T01:29:46.915Z,19.60
2022-09-03T01:30:11.134Z,10.90
2022-09-03T01:30:36.059Z,3.80
2022-09-03T01:31:03.039Z,1.00
2022-09-03T01:31:30.394Z,1.00
2022-09-03T01:31:59.134Z,2.60
2022-09-03T01:32:26.076Z,5.90
2022-09-03T01:32:53.331Z,1.00
2022-09-03T01:33:19.829Z,1.00
2022-09-03T01:33:50.788Z,1.90
2022-09-03T01:34:20.289Z,5.10
2022-09-03T01:34:49.588Z,7.00
2022-09-03T01:35:17.183Z,1.10
2022-09-03T01:35:44.629Z,1.00
2022-09-03T01:36:12.218Z,3.10
2022-09-03T01:36:38.362Z,6.60
2022-09-03T01:37:06.647Z,11.70
2022-09-03T01:37:34.811Z,11.00
2022-09-03T01:38:04.549Z,10.40
2022-09-03T01:38:30.464Z,11.10
2022-09-03T01:38:55.874Z,13.60
2022-09-03T01:39:27.125Z,15.30
2022-09-03T01:39:57.662Z,14.60
2022-09-03T01:40:25.179Z,14.50
2022-09-03T01:40:53.835Z,12.70
2022-09-03T01:41:40.365Z,14.70
2022-09-03T01:42:20.434Z,12.90
2022-09-03T01:42:49.371Z,19.70
2022-09-03T01:43:26.190Z,19.30
2022-09-03T01:43:51.905Z,12.10
2022-09-03T01:44:21.024Z,10.60
2022-09-03T01:45:09.740Z,16.70
2022-09-03T01:45:51.039Z,14.20
2022-09-03T01:46:17.989Z,12.10
2022-09-03T01:46:41.246Z,10.70
2022-09-03T01:47:11.730Z,12.70
2022-09-03T01:47:50.639Z,14.40
2022-09-03T01:48:24.014Z,27.00
2022-09-03T01:48:51.704Z,28.10
2022-09-03T01:49:23.026Z,24.00
2022-09-03T01:49:48.178Z,26.60
2022-09-03T01:50:13.948Z,32.50
2022-09-03T01:50:42.144Z,28.00
2022-09-03T01:51:11.378Z,27.80
2022-09-03T01:51:34.297Z,36.70
2022-09-03T01:52:02.213Z,37.30
2022-09-03T01:52:29.948Z,44.20
2022-09-03T01:52:55.116Z,40.60
2022-09-03T01:53:28.834Z,42.70
2022-09-03T01:54:21.202Z,38.70
2022-09-03T01:54:56.204Z,26.50
2022-09-03T01:55:26.289Z,22.60
2022-09-03T01:55:59.339Z,23.70
2022-09-03T01:56:29.210Z,22.90
2022-09-03T01:57:12.839Z,16.60
2022-09-03T01:57:56.373Z,10.70
2022-09-03T01:58:24.749Z,7.40
2022-09-03T01:58:49.581Z,10.50
2022-09-03T01:59:21.485Z,24.40
2022-09-03T01:59:46.636Z,37.80
2022-09-03T02:00:11.984Z,31.70
2022-09-03T02:00:36.146Z,10.30
2022-09-03T02:01:02.156Z,11.50
2022-09-03T02:01:28.285Z,10.30
2022-09-03T02:01:54.026Z,8.20
2022-09-03T02:02:21.422Z,10.30
2022-09-03T02:02:48.192Z,7.60
2022-09-03T02:03:11.282Z,18.90
2022-09-03T02:03:35.569Z,13.60
2022-09-03T02:04:14.052Z,12.40
2022-09-03T02:04:37.356Z,12.20
2022-09-03T02:05:01.980Z,14.60
2022-09-03T02:05:25.959Z,11.80
2022-09-03T02:05:50.909Z,11.50
2022-09-03T02:06:13.676Z,14.30
2022-09-03T02:06:37.035Z,14.70
2022-09-03T02:07:03.242Z,15.30
2022-09-03T02:07:26.594Z,16.60
2022-09-03T02:07:55.088Z,17.50
2022-09-03T02:08:18.004Z,18.50
2022-09-03T02:08:42.126Z,17.40
2022-09-03T02:09:04.854Z,15.50
2022-09-03T02:09:32.460Z,15.70
2022-09-03T02:09:55.769Z,17.90
2022-09-03T02:10:20.699Z,19.50
2022-09-03T02:10:45.844Z,18.30
2022-09-03T02:11:11.662Z,18.60
2022-09-03T02:11:34.637Z,19.10
2022-09-03T02:12:00.542Z,18.40
2022-09-03T02:12:23.567Z,17.50
2022-09-03T02:12:48.847Z,17.10
2022-09-03T02:13:12.397Z,18.30
2022-09-03T02:13:39.283Z,20.50
2022-09-03T02:14:02.124Z,26.20
2022-09-03T02:14:25.842Z,31.20
2022-09-03T02:14:51.459Z,32.20
2022-09-03T02:15:16.062Z,31.30
2022-09-03T02:15:40.537Z,31.40
2022-09-03T02:16:09.062Z,31.30
2022-09-03T02:16:33.332Z,32.20
2022-09-03T02:16:56.522Z,32.30
2022-09-03T02:17:19.577Z,31.60
2022-09-03T02:17:43.045Z,31.30
2022-09-03T02:18:08.046Z,31.60
2022-09-03T02:18:31.784Z,29.10
2022-09-03T02:18:56.686Z,29.00
2022-09-03T02:19:19.358Z,37.40
2022-09-03T02:19:42.324Z,37.10
2022-09-03T02:20:07.239Z,36.60
2022-09-03T02:20:30.124Z,35.70
2022-09-03T02:20:53.030Z,33.20
2022-09-03T02:21:17.331Z,34.00
2022-09-03T02:21:41.213Z,29.20
2022-09-03T02:22:04.090Z,29.50
2022-09-03T02:22:27.073Z,27.00
2022-09-03T02:22:49.900Z,28.90
2022-09-03T02:23:12.972Z,31.00
2022-09-03T02:23:35.933Z,32.40
2022-09-03T02:23:58.779Z,32.80
2022-09-03T02:24:21.677Z,33.60
2022-09-03T02:24:44.510Z,29.10
2022-09-03T02:25:08.392Z,25.40
2022-09-03T02:25:36.068Z,25.10
2022-09-03T02:26:00.115Z,25.00
2022-09-03T02:26:24.088Z,33.90
2022-09-03T02:26:47.176Z,28.10
2022-09-03T02:27:09.962Z,28.70
2022-09-03T02:27:32.782Z,30.00
2022-09-03T02:27:55.457Z,29.60
2022-09-03T02:28:18.481Z,30.60
2022-09-03T02:28:42.812Z,31.80
2022-09-03T02:29:06.137Z,30.50
2022-09-03T02:29:29.042Z,30.00
2022-09-03T02:29:51.932Z,26.70
2022-09-03T02:30:14.801Z,25.90
2022-09-03T02:30:37.681Z,34.10
2022-09-03T02:31:01.272Z,34.30
2022-09-03T02:31:24.234Z,34.50
2022-09-03T02:31:47.213Z,34.60
2022-09-03T02:32:10.209Z,35.30
2022-09-03T02:32:33.038Z,35.50
2022-09-03T02:32:55.973Z,33.10
2022-09-03T02:33:20.234Z,35.70
2022-09-03T02:33:44.339Z,35.10
2022-09-03T02:34:07.271Z,35.20
2022-09-03T02:34:30.593Z,35.20
2022-09-03T02:34:53.362Z,31.40
2022-09-03T02:35:16.220Z,35.00
2022-09-03T02:35:40.680Z,29.20
2022-09-03T02:36:05.216Z,27.90
2022-09-03T02:36:30.135Z,27.60
2022-09-03T02:36:53.761Z,24.10
2022-09-03T02:37:17.981Z,26.90
2022-09-03T02:37:40.724Z,27.10
2022-09-03T02:38:11.409Z,28.00
2022-09-03T02:38:34.207Z,27.40
2022-09-03T02:38:57.252Z,25.80
2022-09-03T02:39:20.240Z,24.80
2022-09-03T02:39:43.312Z,24.60
2022-09-03T02:40:10.574Z,21.80
2022-09-03T02:40:33.445Z,25.10
2022-09-03T02:40:56.291Z,25.80
2022-09-03T02:41:19.335Z,26.10
2022-09-03T02:41:42.305Z,24.60
2022-09-03T02:42:05.641Z,22.70
2022-09-03T02:42:28.476Z,22.00
2022-09-03T02:42:51.430Z,21.40
2022-09-03T02:43:15.585Z,23.10
2022-09-03T02:43:41.098Z,23.20
2022-09-03T02:44:06.802Z,27.30
2022-09-03T02:44:33.505Z,22.40
2022-09-03T02:44:57.798Z,27.70
2022-09-03T02:45:24.876Z,29.10
2022-09-03T02:45:48.704Z,29.70
2022-09-03T02:46:15.816Z,30.50
2022-09-03T02:46:40.718Z,31.90
2022-09-03T02:47:06.392Z,32.70
2022-09-03T02:47:32.404Z,30.20
2022-09-03T02:47:56.536Z,35.10
2022-09-03T02:48:21.708Z,35.90
2022-09-03T02:48:44.665Z,35.50
2022-09-03T02:49:08.554Z,39.70
2022-09-03T02:49:31.398Z,42.00
2022-09-03T02:49:54.163Z,41.50
2022-09-03T02:50:16.918Z,40.80
2022-09-03T02:50:41.788Z,41.40
2022-09-03T02:51:13.685Z,42.20
2022-09-03T02:51:38.540Z,37.90
2022-09-03T02:52:02.292Z,42.50
2022-09-03T02:52:25.258Z,42.20
2022-09-03T02:52:47.978Z,43.10
2022-09-03T02:53:10.810Z,42.30
2022-09-03T02:53:33.649Z,42.50
2022-09-03T02:53:56.384Z,40.30
2022-09-03T02:54:21.198Z,44.00
2022-09-03T02:54:45.988Z,42.60
2022-09-03T02:55:09.749Z,43.90
2022-09-03T02:55:32.782Z,44.90
2022-09-03T02:55:59.923Z,34.10
2022-09-03T02:56:26.144Z,35.40
2022-09-03T02:56:49.932Z,36.30
2022-09-03T02:57:14.469Z,34.50
2022-09-03T02:57:37.230Z,32.10
2022-09-03T02:58:00.529Z,31.80
2022-09-03T02:58:23.513Z,32.10
2022-09-03T02:58:46.348Z,30.70
2022-09-03T02:59:10.798Z,29.90
2022-09-03T02:59:33.819Z,29.20
2022-09-03T02:59:56.998Z,28.60
2022-09-03T03:00:19.912Z,28.90
2022-09-03T03:00:42.749Z,28.30
2022-09-03T03:01:06.141Z,28.80
2022-09-03T03:01:31.795Z,28.80
2022-09-03T03:01:55.543Z,29.00
2022-09-03T03:02:18.509Z,35.40
2022-09-03T03:02:42.236Z,42.40
2022-09-03T03:03:05.957Z,38.20
2022-09-03T03:03:28.957Z,37.50
2022-09-03T03:03:51.852Z,37.90
2022-09-03T03:04:14.662Z,40.10
2022-09-03T03:04:37.373Z,40.00
2022-09-03T03:05:03.537Z,39.50
2022-09-03T03:05:29.082Z,41.20
2022-09-03T03:05:53.501Z,41.70
2022-09-03T03:06:16.408Z,41.50
2022-09-03T03:06:39.284Z,39.10
2022-09-03T03:07:02.337Z,33.00
2022-09-03T03:07:26.307Z,30.30
2022-09-03T03:07:49.218Z,29.50
2022-09-03T03:08:15.421Z,30.20
2022-09-03T03:08:38.932Z,38.70
2022-09-03T03:09:06.143Z,34.50
2022-09-03T03:09:29.232Z,35.90
2022-09-03T03:09:52.133Z,29.00
2022-09-03T03:10:15.028Z,34.80
2022-09-03T03:10:38.317Z,33.40
2022-09-03T03:11:01.163Z,34.90
2022-09-03T03:11:26.629Z,36.40
2022-09-03T03:11:50.695Z,37.20
2022-09-03T03:12:13.693Z,40.40
2022-09-03T03:12:37.329Z,42.10
2022-09-03T03:13:00.049Z,44.00
2022-09-03T03:13:22.939Z,44.60
2022-09-03T03:13:45.993Z,44.30
2022-09-03T03:14:10.537Z,46.70
2022-09-03T03:14:33.326Z,47.80
2022-09-03T03:14:56.098Z,48.60
2022-09-03T03:15:19.559Z,49.90
2022-09-03T03:15:42.457Z,52.30
2022-09-03T03:16:06.597Z,53.00
2022-09-03T03:16:29.426Z,54.10
2022-09-03T03:16:52.413Z,54.30
2022-09-03T03:17:15.817Z,54.00
2022-09-03T03:17:38.811Z,54.90
2022-09-03T03:18:01.855Z,54.10
2022-09-03T03:18:25.398Z,52.60
2022-09-03T03:18:48.892Z,52.90
2022-09-03T03:19:12.208Z,51.70
2022-09-03T03:19:35.005Z,51.10
2022-09-03T03:19:57.751Z,51.40
2022-09-03T03:20:20.521Z,51.30
2022-09-03T03:20:43.441Z,51.60
2022-09-03T03:21:10.086Z,52.30
2022-09-03T03:21:33.328Z,52.30
2022-09-03T03:21:56.384Z,53.20
2022-09-03T03:22:19.188Z,52.60
2022-09-03T03:22:42.117Z,53.10
2022-09-03T03:23:05.804Z,54.20
2022-09-03T03:23:32.700Z,54.20
2022-09-03T03:23:55.428Z,53.10
2022-09-03T03:24:18.160Z,52.50
2022-09-03T03:24:41.170Z,51.50
2022-09-03T03:25:06.121Z,50.70
2022-09-03T03:25:28.841Z,50.20
2022-09-03T03:25:51.760Z,51.00
2022-09-03T03:26:15.758Z,51.70
2022-09-03T03:26:38.625Z,51.10
2022-09-03T03:27:01.393Z,49.70
2022-09-03T03:27:24.550Z,50.60
2022-09-03T03:27:47.488Z,50.90
2022-09-03T03:28:10.769Z,50.90
2022-09-03T03:28:34.455Z,51.80
2022-09-03T03:28:58.134Z,51.60
2022-09-03T03:29:22.734Z,52.20
2022-09-03T03:29:45.815Z,52.00
2022-09-03T03:30:10.473Z,51.40
2022-09-03T03:30:33.860Z,51.30
2022-09-03T03:30:56.860Z,50.50
2022-09-03T03:31:21.167Z,51.00
2022-09-03T03:31:44.199Z,51.00
2022-09-03T03:32:07.054Z,51.50
2022-09-03T03:32:29.884Z,52.40
2022-09-03T03:32:53.961Z,52.90
2022-09-03T03:33:16.765Z,52.70
2022-09-03T03:33:39.677Z,52.40
2022-09-03T03:34:03.361Z,52.10
2022-09-03T03:34:26.112Z,52.40
2022-09-03T03:34:51.747Z,52.20
2022-09-03T03:35:14.619Z,51.90
2022-09-03T03:35:37.496Z,51.30
2022-09-03T03:36:04.871Z,51.40
2022-09-03T03:36:28.799Z,51.90
2022-09-03T03:36:51.593Z,52.60
2022-09-03T03:37:14.404Z,52.90
2022-09-03T03:37:37.238Z,53.80
2022-09-03T03:38:00.527Z,53.60
2022-09-03T03:38:23.368Z,52.80
2022-09-03T03:38:46.612Z,51.90
2022-09-03T03:39:10.633Z,51.80
2022-09-03T03:39:34.353Z,52.20
2022-09-03T03:39:57.592Z,51.80
2022-09-03T03:40:20.699Z,51.50
2022-09-03T03:40:43.443Z,51.70
2022-09-03T03:41:10.204Z,52.20
2022-09-03T03:41:33.914Z,53.40
2022-09-03T03:41:56.818Z,54.10
2022-09-03T03:42:19.793Z,54.30
2022-09-03T03:42:45.314Z,53.90
2022-09-03T03:43:08.244Z,53.70
2022-09-03T03:43:31.097Z,53.90
2022-09-03T03:43:55.117Z,52.10
2022-09-03T03:44:20.373Z,51.20
2022-09-03T03:44:45.327Z,52.10
2022-09-03T03:45:10.300Z,53.20
2022-09-03T03:45:33.557Z,54.20
2022-09-03T03:45:58.035Z,55.30
2022-09-03T03:46:20.927Z,56.30
2022-09-03T03:46:44.047Z,55.40
2022-09-03T03:47:06.967Z,55.10
2022-09-03T03:47:32.687Z,55.70
2022-09-03T03:47:58.322Z,56.90
2022-09-03T03:48:21.330Z,57.40
2022-09-03T03:48:47.520Z,57.00
2022-09-03T03:49:11.242Z,57.60
2022-09-03T03:49:34.016Z,56.10
2022-09-03T03:49:57.058Z,56.00
2022-09-03T03:50:19.851Z,57.00
2022-09-03T03:50:42.703Z,57.50
2022-09-03T03:51:07.089Z,55.90
2022-09-03T03:51:30.776Z,55.30
2022-09-03T03:51:53.583Z,56.00
2022-09-03T03:52:16.535Z,56.00
2022-09-03T03:52:39.578Z,56.30
2022-09-03T03:53:02.604Z,56.90
2022-09-03T03:53:25.344Z,57.50
2022-09-03T03:53:48.703Z,57.00
2022-09-03T03:54:11.483Z,56.70
2022-09-03T03:54:37.358Z,56.30
2022-09-03T03:55:00.573Z,57.40
2022-09-03T03:55:23.419Z,56.80
2022-09-03T03:55:56.075Z,56.90
2022-09-03T03:56:19.139Z,57.00
2022-09-03T03:56:42.124Z,57.30
2022-09-03T03:57:04.923Z,57.10
2022-09-03T03:57:30.124Z,57.20
2022-09-03T03:57:53.490Z,55.70
2022-09-03T03:58:16.243Z,55.80
2022-09-03T03:58:42.493Z,56.20
2022-09-03T03:59:05.333Z,56.10
2022-09-03T03:59:28.320Z,56.00
2022-09-03T03:59:52.698Z,55.40
2022-09-03T04:00:16.838Z,56.60
2022-09-03T04:00:39.613Z,55.50
2022-09-03T04:01:05.367Z,55.40
2022-09-03T04:01:30.922Z,55.60
2022-09-03T04:01:55.345Z,54.40
2022-09-03T04:02:18.620Z,54.30
2022-09-03T04:02:41.503Z,54.20
2022-09-03T04:03:04.359Z,54.50
2022-09-03T04:03:27.232Z,54.80
2022-09-03T04:03:50.048Z,53.30
2022-09-03T04:04:13.572Z,53.20
2022-09-03T04:04:36.697Z,53.10
2022-09-03T04:04:59.737Z,52.10
2022-09-03T04:05:23.134Z,53.10
2022-09-03T04:05:56.371Z,52.90
2022-09-03T04:06:20.032Z,52.20
2022-09-03T04:06:43.571Z,52.30
2022-09-03T04:07:06.616Z,51.70
2022-09-03T04:07:29.532Z,51.80
2022-09-03T04:07:53.956Z,52.10
2022-09-03T04:08:16.906Z,52.30
2022-09-03T04:08:40.871Z,52.50
2022-09-03T04:09:03.865Z,52.70
2022-09-03T04:09:26.656Z,51.70
2022-09-03T04:09:49.636Z,51.30
2022-09-03T04:10:13.630Z,51.10
2022-09-03T04:10:36.997Z,51.10
2022-09-03T04:11:00.676Z,51.20
2022-09-03T04:11:24.361Z,51.40
2022-09-03T04:11:47.166Z,51.80
2022-09-03T04:12:10.436Z,51.80
2022-09-03T04:12:33.369Z,51.80
2022-09-03T04:12:56.449Z,51.90
2022-09-03T04:13:19.253Z,51.80
2022-09-03T04:13:43.390Z,52.30
2022-09-03T04:14:06.134Z,52.50
2022-09-03T04:14:28.923Z,53.20
2022-09-03T04:14:53.309Z,53.50
2022-09-03T04:15:16.148Z,53.90
2022-09-03T04:15:39.404Z,53.70
2022-09-03T04:16:03.248Z,54.10
2022-09-03T04:16:26.711Z,55.00
2022-09-03T04:16:49.561Z,55.60
2022-09-03T04:17:12.524Z,54.80
2022-09-03T04:17:35.234Z,55.10
2022-09-03T04:17:58.152Z,54.40
2022-09-03T04:18:20.997Z,54.70
2022-09-03T04:18:43.741Z,54.90
2022-09-03T04:19:06.551Z,54.60
2022-09-03T04:19:32.716Z,54.50
2022-09-03T04:19:55.486Z,54.70
2022-09-03T04:20:18.155Z,55.10
2022-09-03T04:20:40.911Z,54.90
2022-09-03T04:21:05.036Z,54.90
2022-09-03T04:21:29.026Z,55.30
2022-09-03T04:21:51.992Z,55.70
2022-09-03T04:22:15.878Z,55.30
2022-09-03T04:22:38.678Z,56.00
2022-09-03T04:23:01.573Z,55.90
2022-09-03T04:23:25.012Z,56.30
2022-09-03T04:23:48.562Z,56.10
2022-09-03T04:24:11.448Z,56.10
2022-09-03T04:24:34.181Z,55.80
2022-09-03T04:24:57.149Z,55.50
2022-09-03T04:25:19.986Z,54.80
2022-09-03T04:25:43.742Z,54.70
2022-09-03T04:26:10.322Z,54.80
2022-09-03T04:26:33.582Z,54.70
2022-09-03T04:26:56.478Z,54.40
2022-09-03T04:27:19.351Z,54.20
2022-09-03T04:27:42.281Z,53.60
2022-09-03T04:28:05.091Z,53.50
2022-09-03T04:28:28.381Z,53.40
2022-09-03T04:28:51.406Z,53.40
2022-09-03T04:29:14.160Z,53.50
2022-09-03T04:29:37.006Z,53.40
2022-09-03T04:30:02.159Z,53.60
2022-09-03T04:30:27.924Z,54.40
2022-09-03T04:30:50.807Z,53.60
2022-09-03T04:31:14.749Z,53.70
2022-09-03T04:31:38.060Z,53.70
2022-09-03T04:32:19.088Z,53.60
2022-09-03T04:32:54.283Z,53.50
2022-09-03T04:33:17.082Z,50.00
2022-09-03T04:33:39.972Z,47.80
2022-09-03T04:34:09.537Z,49.00
2022-09-03T04:34:32.261Z,45.80
2022-09-03T04:34:55.126Z,49.00
2022-09-03T04:35:18.289Z,56.10
2022-09-03T04:35:42.295Z,49.20
2022-09-03T04:36:06.284Z,50.10
2022-09-03T04:36:30.110Z,45.70
2022-09-03T04:36:53.115Z,46.10
2022-09-03T04:37:19.907Z,42.40
2022-09-03T04:37:42.828Z,48.10
2022-09-03T04:38:05.717Z,50.20
2022-09-03T04:38:29.961Z,50.90
2022-09-03T04:38:54.936Z,52.80
2022-09-03T04:39:17.933Z,45.50
2022-09-03T04:39:40.768Z,42.70
2022-09-03T04:40:04.579Z,41.60
2022-09-03T04:40:27.479Z,39.50
2022-09-03T04:40:53.034Z,49.20
2022-09-03T04:41:16.905Z,49.10
2022-09-03T04:41:39.823Z,53.30
2022-09-03T04:42:05.717Z,51.40
2022-09-03T04:42:28.628Z,46.20
2022-09-03T04:42:52.688Z,36.30
2022-09-03T04:43:15.405Z,51.20
2022-09-03T04:43:43.604Z,51.90
2022-09-03T04:44:06.340Z,99.90
2022-09-03T04:44:29.188Z,99.90
2022-09-03T04:44:52.123Z,18.10
2022-09-03T04:45:18.980Z,18.50
2022-09-03T04:45:41.731Z,42.10
2022-09-03T04:46:05.890Z,5.60
2022-09-03T04:46:34.054Z,1.00
2022-09-03T04:46:57.174Z,1.00
2022-09-03T04:47:19.978Z,1.00
2022-09-03T04:47:42.842Z,1.00
2022-09-03T04:48:05.733Z,1.00
2022-09-03T04:48:29.004Z,1.00
2022-09-03T04:48:52.653Z,1.00
2022-09-03T04:49:15.499Z,1.00
2022-09-03T04:49:40.418Z,1.00
2022-09-03T04:50:03.183Z,99.90
2022-09-03T04:50:28.054Z,99.90
2022-09-03T04:50:50.868Z,99.90
2022-09-03T04:51:15.096Z,99.90
2022-09-03T04:51:38.622Z,99.90
2022-09-03T04:52:02.468Z,99.90
2022-09-03T04:52:25.498Z,99.90
2022-09-03T04:52:48.229Z,99.90
2022-09-03T04:53:10.978Z,99.90
2022-09-03T04:53:34.774Z,99.90
2022-09-03T04:53:57.983Z,99.90
2022-09-03T04:54:20.748Z,99.90
2022-09-03T04:54:43.517Z,99.90
2022-09-03T04:55:08.589Z,99.90
2022-09-03T04:55:34.187Z,86.10
2022-09-03T04:55:57.706Z,48.80
2022-09-03T04:56:21.496Z,58.60
2022-09-03T04:56:44.447Z,65.70
2022-09-03T04:57:07.147Z,26.00
2022-09-03T04:57:34.611Z,1.00
2022-09-03T04:57:57.339Z,1.00
2022-09-03T04:58:20.099Z,1.00
2022-09-03T04:58:45.021Z,1.00
2022-09-03T04:59:09.361Z,1.00
2022-09-03T04:59:32.167Z,1.00
2022-09-03T04:59:56.697Z,1.00
2022-09-03T05:00:21.987Z,1.00
2022-09-03T05:00:46.269Z,1.00
2022-09-03T05:01:09.563Z,1.00
2022-09-03T05:01:33.569Z,1.00
2022-09-03T05:01:57.093Z,1.00
2022-09-03T05:02:21.730Z,99.90
2022-09-03T05:02:47.231Z,99.90
2022-09-03T05:03:10.143Z,99.90
2022-09-03T05:03:32.942Z,99.90
2022-09-03T05:03:56.556Z,99.90
2022-09-03T05:04:20.061Z,99.90
2022-09-03T05:04:42.916Z,99.90
2022-09-03T05:05:06.373Z,99.90
2022-09-03T05:05:29.582Z,1.00
2022-09-03T05:05:53.771Z,1.00
2022-09-03T05:06:17.381Z,1.00
2022-09-03T05:06:43.507Z,99.90
2022-09-03T05:07:06.397Z,1.00
2022-09-03T05:07:29.562Z,99.90
2022-09-03T05:07:53.725Z,34.00
2022-09-03T05:08:16.581Z,1.00
2022-09-03T05:08:40.546Z,1.00
2022-09-03T05:09:03.431Z,99.90
2022-09-03T05:09:26.281Z,99.90
2022-09-03T05:09:49.087Z,99.90
2022-09-03T05:10:13.652Z,1.00
2022-09-03T05:10:36.461Z,1.00
2022-09-03T05:11:00.681Z,99.90
2022-09-03T05:11:23.491Z,99.90
2022-09-03T05:11:47.121Z,99.90
2022-09-03T05:12:11.105Z,99.90
2022-09-03T05:12:34.081Z,99.90
2022-09-03T05:13:00.447Z,1.00
2022-09-03T05:13:23.404Z,99.90
2022-09-03T05:13:48.764Z,99.90
2022-09-03T05:14:12.089Z,99.90
2022-09-03T05:14:34.860Z,82.10
2022-09-03T05:14:57.655Z,99.90
2022-09-03T05:15:22.129Z,30.80
2022-09-03T05:15:45.491Z,1.00
2022-09-03T05:16:10.173Z,1.00
2022-09-03T05:16:33.176Z,99.90
2022-09-03T05:16:56.052Z,4.80
2022-09-03T05:17:18.935Z,1.00
2022-09-03T05:17:41.886Z,1.00
2022-09-03T05:18:04.757Z,1.00
2022-09-03T05:18:27.684Z,1.00
2022-09-03T05:18:53.020Z,1.00
2022-09-03T05:19:16.400Z,1.00
2022-09-03T05:19:39.111Z,1.00
2022-09-03T05:20:01.920Z,1.00
2022-09-03T05:20:25.480Z,1.00
2022-09-03T05:20:48.850Z,1.00
2022-09-03T05:21:12.385Z,1.00
2022-09-03T05:21:38.405Z,1.00
2022-09-03T05:22:01.235Z,99.90
2022-09-03T05:22:24.075Z,99.90
2022-09-03T05:22:46.915Z,99.90
2022-09-03T05:23:09.775Z,99.90
2022-09-03T05:23:37.020Z,99.90
2022-09-03T05:24:01.841Z,1.00
2022-09-03T05:24:25.159Z,56.40
2022-09-03T05:24:49.048Z,1.00
2022-09-03T05:25:11.889Z,1.00
2022-09-03T05:25:34.690Z,1.00
2022-09-03T05:25:58.404Z,1.00
2022-09-03T05:26:22.381Z,1.00
2022-09-03T05:26:45.325Z,1.00
2022-09-03T05:27:08.127Z,1.00
2022-09-03T05:27:31.810Z,1.00
2022-09-03T05:27:55.078Z,1.00
2022-09-03T05:28:18.034Z,1.00
2022-09-03T05:28:41.993Z,1.00
2022-09-03T05:29:08.595Z,99.90
2022-09-03T05:29:31.518Z,99.90
2022-09-03T05:29:54.462Z,1.00
2022-09-03T05:30:17.373Z,1.00
2022-09-03T05:30:41.567Z,99.90